Time;durP1;ratioP1;P1;durP2;ratioP2;P2;SDS_P1;SDS_P2;PMS_P1;PMS_P2;Temp;Humidity;BMP_temperature;BMP_pressure;BME280_temperature;BME280_humidity;BME280_pressure;Samples;Min_cycle;Max_cycle;Signal;HPM_P1;HPM_P2
2022/03/25 00:00:12;;;;;;;15.07;11.20;;;6.40;90.00;;;;;;5014236;28;20214;-68
2022/03/25 00:02:39;;;;;;;15.67;11.67;;;6.30;90.10;;;;;;5014722;28;20742;-70
2022/03/25 00:05:07;;;;;;;16.23;11.47;;;6.30;90.10;;;;;;5014202;28;20231;-67
2022/03/25 00:07:34;;;;;;;14.97;10.43;;;6.40;90.10;;;;;;5013482;28;20709;-67
2022/03/25 00:10:01;;;;;;;14.70;11.00;;;6.40;90.00;;;;;;5013616;28;20305;-64
2022/03/25 00:12:29;;;;;;;14.63;10.67;;;6.40;90.20;;;;;;5012794;28;20718;-66
2022/03/25 00:14:56;;;;;;;16.37;10.80;;;6.30;90.30;;;;;;5012390;28;20798;-67
2022/03/25 00:17:23;;;;;;;15.10;10.73;;;6.30;90.40;;;;;;5014508;28;20214;-66
2022/03/25 00:19:49;;;;;;;12.77;10.53;;;6.20;90.50;;;;;;5015075;28;20697;-66
2022/03/25 00:22:16;;;;;;;16.70;10.37;;;6.30;90.80;;;;;;5015257;28;20261;-66
2022/03/25 00:24:43;;;;;;;16.37;11.03;;;6.20;90.90;;;;;;5015100;28;20227;-66
2022/03/25 00:27:09;;;;;;;13.43;10.50;;;6.30;91.00;;;;;;5014513;28;20239;-68
2022/03/25 00:29:38;;;;;;;15.63;11.07;;;6.30;90.90;;;;;;5015495;28;20245;-68
2022/03/25 00:32:05;;;;;;;13.50;10.13;;;6.30;91.00;;;;;;5015225;28;20226;-65
2022/03/25 00:34:32;;;;;;;14.47;11.07;;;6.30;91.00;;;;;;5014425;28;20738;-64
2022/03/25 00:36:58;;;;;;;18.13;11.70;;;6.30;90.90;;;;;;5013902;28;20233;-66
2022/03/25 00:39:25;;;;;;;16.37;10.70;;;6.40;90.70;;;;;;5012091;28;20265;-64
2022/03/25 00:41:52;;;;;;;13.80;10.43;;;6.40;90.30;;;;;;5013890;28;20218;-64
2022/03/25 00:44:19;;;;;;;20.17;11.50;;;6.40;90.40;;;;;;5014772;28;20580;-61
2022/03/25 00:46:47;;;;;;;14.37;10.77;;;6.40;90.50;;;;;;5014496;28;20293;-62
2022/03/25 00:49:14;;;;;;;13.73;10.67;;;6.30;90.70;;;;;;5014896;28;20585;-64
2022/03/25 00:51:40;;;;;;;17.93;11.10;;;6.20;90.90;;;;;;5015187;28;20215;-61
2022/03/25 00:54:08;;;;;;;16.00;10.90;;;6.20;91.00;;;;;;5015436;28;20211;-63
2022/03/25 00:56:35;;;;;;;13.73;10.80;;;6.10;91.00;;;;;;5014374;28;20203;-63
2022/03/25 00:59:02;;;;;;;17.57;11.30;;;6.10;91.10;;;;;;5015290;28;20206;-67
2022/03/25 01:01:29;;;;;;;19.03;10.60;;;6.10;91.10;;;;;;5015282;28;20214;-64
2022/03/25 01:03:57;;;;;;;12.70;10.43;;;6.10;91.10;;;;;;5015164;28;20203;-68
2022/03/25 01:06:24;;;;;;;14.20;11.53;;;6.00;91.10;;;;;;5015389;28;20227;-64
2022/03/25 01:08:51;;;;;;;16.20;11.53;;;6.00;91.20;;;;;;5014955;28;20605;-63
2022/03/25 01:11:17;;;;;;;14.17;10.13;;;5.90;91.30;;;;;;5015590;28;20215;-68
2022/03/25 01:13:44;;;;;;;17.13;10.90;;;5.70;91.50;;;;;;5014925;28;20729;-64
2022/03/25 01:16:11;;;;;;;17.83;10.77;;;5.60;91.70;;;;;;5014371;28;20237;-61
2022/03/25 01:18:38;;;;;;;16.43;11.00;;;5.50;92.00;;;;;;5015105;28;20241;-67
2022/03/25 01:21:06;;;;;;;18.50;11.80;;;5.30;92.20;;;;;;5015075;28;20606;-60
2022/03/25 01:23:33;;;;;;;14.60;11.17;;;5.20;92.60;;;;;;5014680;28;20202;-60
2022/03/25 01:25:59;;;;;;;16.67;11.53;;;5.00;92.80;;;;;;5015078;28;20289;-61
2022/03/25 01:28:32;;;;;;;15.23;11.07;;;5.00;92.90;;;;;;5014795;28;20218;-61
2022/03/25 01:31:00;;;;;;;17.80;12.43;;;5.00;92.90;;;;;;5015125;28;20632;-61
2022/03/25 01:33:28;;;;;;;19.37;12.57;;;5.00;92.80;;;;;;5014548;28;20238;-61
2022/03/25 01:35:55;;;;;;;19.13;13.50;;;5.10;92.80;;;;;;5014896;28;20227;-61
2022/03/25 01:38:24;;;;;;;17.83;12.23;;;5.10;92.70;;;;;;5014868;28;20199;-61
2022/03/25 01:40:51;;;;;;;22.30;15.27;;;5.20;92.60;;;;;;5014925;28;20243;-61
2022/03/25 01:43:17;;;;;;;20.13;14.37;;;5.10;92.80;;;;;;5014527;28;20207;-60
2022/03/25 01:45:44;;;;;;;15.63;11.70;;;5.00;92.80;;;;;;5050106;22;20709;-63
2022/03/25 01:48:13;;;;;;;17.07;12.00;;;5.00;92.80;;;;;;5033951;28;20253;-63
2022/03/25 01:50:42;;;;;;;15.63;11.20;;;5.10;92.70;;;;;;5033787;28;20264;-63
2022/03/25 01:53:13;;;;;;;15.50;11.57;;;5.10;92.80;;;;;;5032832;28;20230;-63
2022/03/25 01:55:49;;;;;;;13.83;11.00;;;5.10;92.70;;;;;;5033379;28;20618;-63
2022/03/25 01:58:16;;;;;;;14.23;11.10;;;5.10;92.70;;;;;;5033484;28;20559;-63
2022/03/25 02:00:43;;;;;;;16.17;11.83;;;5.10;92.60;;;;;;5033746;28;20206;-64
2022/03/25 02:03:09;;;;;;;16.53;11.57;;;5.20;92.60;;;;;;5033429;28;20252;-63
2022/03/25 02:05:36;;;;;;;18.07;11.10;;;5.20;92.60;;;;;;5033130;28;20229;-63
2022/03/25 02:08:03;;;;;;;18.60;11.83;;;5.10;92.60;;;;;;5033162;28;20214;-64
2022/03/25 02:10:30;;;;;;;18.93;12.23;;;5.10;92.60;;;;;;5033452;28;20603;-63
2022/03/25 02:12:58;;;;;;;15.70;11.93;;;5.20;92.60;;;;;;5033206;28;20226;-63
2022/03/25 02:15:35;;;;;;;15.43;11.47;;;5.20;92.50;;;;;;5032863;28;20223;-63
2022/03/25 02:18:05;;;;;;;18.93;11.50;;;5.20;92.50;;;;;;5033422;28;20267;-62
2022/03/25 02:20:31;;;;;;;17.77;12.03;;;5.20;92.60;;;;;;5033623;28;20268;-63
2022/03/25 02:22:59;;;;;;;17.53;11.33;;;5.20;92.60;;;;;;5033824;28;20214;-63
2022/03/25 02:25:29;;;;;;;15.83;11.37;;;5.20;92.60;;;;;;5032872;28;20257;-63
2022/03/25 02:27:57;;;;;;;15.27;11.50;;;5.20;92.70;;;;;;5033242;28;20206;-63
2022/03/25 02:30:24;;;;;;;16.97;12.10;;;5.20;92.80;;;;;;5033044;28;20206;-63
2022/03/25 02:32:51;;;;;;;18.70;10.90;;;5.10;92.90;;;;;;5033359;28;20221;-62
2022/03/25 02:35:17;;;;;;;18.10;11.37;;;5.00;93.20;;;;;;5032566;28;20230;-62
2022/03/25 02:37:44;;;;;;;15.27;11.27;;;4.80;93.40;;;;;;5032989;28;20237;-63
2022/03/25 02:40:12;;;;;;;15.40;11.93;;;4.80;93.60;;;;;;5032936;28;20256;-63
2022/03/25 02:42:39;;;;;;;14.90;10.43;;;4.70;93.70;;;;;;5032769;28;20604;-62
2022/03/25 02:45:08;;;;;;;16.07;11.17;;;4.70;93.80;;;;;;5032361;28;20234;-63
2022/03/25 02:47:34;;;;;;;14.80;10.83;;;4.80;93.70;;;;;;5032724;28;20218;-63
2022/03/25 02:50:01;;;;;;;14.73;11.27;;;4.80;93.60;;;;;;5032513;28;20268;-63
2022/03/25 02:52:28;;;;;;;16.37;11.53;;;4.80;93.60;;;;;;5032688;28;20206;-63
2022/03/25 02:54:54;;;;;;;14.67;11.03;;;4.80;93.70;;;;;;5032727;28;20226;-63
2022/03/25 02:57:23;;;;;;;15.27;10.87;;;4.70;93.70;;;;;;5032677;28;20216;-63
2022/03/25 02:59:50;;;;;;;18.57;11.37;;;4.60;93.80;;;;;;5032948;28;20206;-63
2022/03/25 03:02:16;;;;;;;15.17;11.53;;;4.60;93.90;;;;;;5033217;28;20344;-63
2022/03/25 03:04:43;;;;;;;16.27;11.53;;;4.50;94.10;;;;;;5033016;28;20225;-62
2022/03/25 03:07:10;;;;;;;15.60;11.83;;;4.40;94.30;;;;;;5033342;28;20210;-63
2022/03/25 03:09:37;;;;;;;18.97;11.50;;;4.40;94.50;;;;;;5033274;28;20214;-63
2022/03/25 03:12:04;;;;;;;17.27;11.93;;;4.30;94.60;;;;;;5033123;28;20217;-63
2022/03/25 03:14:32;;;;;;;17.77;11.73;;;4.30;94.70;;;;;;5032830;28;20226;-63
2022/03/25 03:16:59;;;;;;;15.10;10.80;;;4.20;94.80;;;;;;5032782;28;20206;-63
2022/03/25 03:19:26;;;;;;;16.40;11.93;;;4.20;94.90;;;;;;5033201;28;20210;-62
2022/03/25 03:21:53;;;;;;;19.23;10.93;;;4.10;94.90;;;;;;5032424;28;20229;-64
2022/03/25 03:24:20;;;;;;;13.87;10.60;;;4.00;95.10;;;;;;5031851;28;20206;-63
2022/03/25 03:26:47;;;;;;;15.70;11.13;;;4.00;95.20;;;;;;5032053;28;20211;-63
2022/03/25 03:29:14;;;;;;;18.07;11.80;;;4.10;95.10;;;;;;5032597;28;20213;-63
2022/03/25 03:31:42;;;;;;;19.37;11.30;;;4.10;95.00;;;;;;5032437;28;20241;-63
2022/03/25 03:34:08;;;;;;;15.50;11.77;;;4.20;95.10;;;;;;5033750;28;20276;-63
2022/03/25 03:36:35;;;;;;;16.50;11.97;;;4.10;95.10;;;;;;5034383;28;20291;-63
2022/03/25 03:39:02;;;;;;;17.13;12.53;;;4.10;95.40;;;;;;5033789;28;20640;-63
2022/03/25 03:41:29;;;;;;;15.40;12.23;;;4.00;95.50;;;;;;5031919;28;20202;-63
2022/03/25 03:43:55;;;;;;;25.27;12.97;;;3.90;95.70;;;;;;5031510;28;20736;-63
2022/03/25 03:46:22;;;;;;;15.83;11.43;;;3.90;95.70;;;;;;5031495;28;20233;-63
2022/03/25 03:48:50;;;;;;;19.53;12.00;;;3.90;95.80;;;;;;5031910;28;20301;-63
2022/03/25 03:51:17;;;;;;;14.40;10.73;;;3.90;95.90;;;;;;5031670;28;20650;-63
2022/03/25 03:53:44;;;;;;;17.27;11.60;;;3.90;95.90;;;;;;5031297;28;20234;-62
2022/03/25 03:56:10;;;;;;;17.87;11.83;;;3.90;95.90;;;;;;5031728;28;20230;-62
2022/03/25 03:58:37;;;;;;;16.13;11.70;;;3.80;96.00;;;;;;5031512;28;20205;-62
2022/03/25 04:01:04;;;;;;;19.40;11.90;;;3.80;96.00;;;;;;5031752;28;20214;-63
2022/03/25 04:03:31;;;;;;;20.93;11.57;;;3.80;96.10;;;;;;5031529;28;20300;-63
2022/03/25 04:06:00;;;;;;;15.27;11.13;;;3.80;96.30;;;;;;5031577;28;20230;-63
2022/03/25 04:08:26;;;;;;;16.80;11.90;;;3.70;96.50;;;;;;5031944;28;20206;-62
2022/03/25 04:10:53;;;;;;;19.30;12.07;;;3.60;96.70;;;;;;5031377;28;20202;-62
2022/03/25 04:13:20;;;;;;;15.70;11.90;;;3.70;96.70;;;;;;5031314;28;20228;-62
2022/03/25 04:15:46;;;;;;;15.43;11.33;;;3.80;96.50;;;;;;5033237;28;20230;-63
2022/03/25 04:18:13;;;;;;;16.13;11.87;;;3.90;96.30;;;;;;5035554;28;20210;-62
2022/03/25 04:20:40;;;;;;;13.30;10.67;;;3.80;96.30;;;;;;5035498;28;20267;-62
2022/03/25 04:23:08;;;;;;;17.27;11.37;;;3.70;96.50;;;;;;5035483;28;20206;-63
2022/03/25 04:25:34;;;;;;;22.00;15.37;;;3.70;96.60;;;;;;5035241;28;20223;-62
2022/03/25 04:28:01;;;;;;;27.87;17.30;;;3.60;96.60;;;;;;5035397;28;20210;-62
2022/03/25 04:30:29;;;;;;;28.03;17.33;;;3.60;96.70;;;;;;5035230;28;20259;-63
2022/03/25 04:32:58;;;;;;;21.17;14.60;;;3.50;96.70;;;;;;5034874;28;20364;-63
2022/03/25 04:35:28;;;;;;;21.90;14.73;;;3.50;96.90;;;;;;5034669;28;20226;-62
2022/03/25 04:37:54;;;;;;;20.57;12.70;;;3.40;96.90;;;;;;5034900;28;20217;-62
2022/03/25 04:40:25;;;;;;;20.13;13.67;;;3.50;97.00;;;;;;5035044;28;20209;-63
2022/03/25 04:42:53;;;;;;;18.37;13.00;;;3.50;97.00;;;;;;5034913;28;20658;-62
2022/03/25 04:45:23;;;;;;;17.73;12.80;;;3.50;97.10;;;;;;5034432;28;20287;-62
2022/03/25 04:47:50;;;;;;;18.73;13.00;;;3.50;97.10;;;;;;5034697;28;20218;-63
2022/03/25 04:50:16;;;;;;;17.20;12.47;;;3.50;97.10;;;;;;5034739;28;20213;-62
2022/03/25 04:52:43;;;;;;;17.33;12.70;;;3.50;97.10;;;;;;5034434;28;20234;-63
2022/03/25 04:55:11;;;;;;;17.33;12.00;;;3.50;97.00;;;;;;5034515;28;20234;-62
2022/03/25 04:57:39;;;;;;;17.83;12.57;;;3.60;97.00;;;;;;5034751;28;20210;-62
2022/03/25 05:00:07;;;;;;;19.37;12.90;;;3.60;97.00;;;;;;5034716;28;20241;-62
2022/03/25 05:02:34;;;;;;;17.73;12.23;;;3.60;96.90;;;;;;5034991;28;20207;-63
2022/03/25 05:05:02;;;;;;;17.77;12.33;;;3.60;96.90;;;;;;5034262;28;20222;-62
2022/03/25 05:07:30;;;;;;;17.40;12.77;;;3.60;96.90;;;;;;5034305;28;20210;-62
2022/03/25 05:09:58;;;;;;;17.30;12.47;;;3.60;97.00;;;;;;5034648;28;20202;-62
2022/03/25 05:12:25;;;;;;;17.90;12.00;;;3.70;97.00;;;;;;5034648;28;20303;-62
2022/03/25 05:14:53;;;;;;;17.37;12.77;;;3.70;96.90;;;;;;5034227;28;20245;-62
2022/03/25 05:17:20;;;;;;;15.23;12.07;;;3.70;96.90;;;;;;5034237;28;20206;-62
2022/03/25 05:19:47;;;;;;;19.03;12.10;;;3.70;96.90;;;;;;5034050;28;20332;-62
2022/03/25 05:22:14;;;;;;;16.93;12.27;;;3.80;96.90;;;;;;5034550;28;20209;-62
2022/03/25 05:24:41;;;;;;;18.23;13.47;;;3.70;96.90;;;;;;5033836;28;20709;-62
2022/03/25 05:27:08;;;;;;;18.37;12.60;;;3.70;97.00;;;;;;5033145;28;20217;-63
2022/03/25 05:29:34;;;;;;;16.73;12.37;;;3.70;97.00;;;;;;5034477;28;20210;-63
2022/03/25 05:32:02;;;;;;;19.30;13.43;;;3.70;97.00;;;;;;5034145;28;20216;-63
2022/03/25 05:34:29;;;;;;;17.10;12.80;;;3.70;97.10;;;;;;5033590;28;20229;-63
2022/03/25 05:36:56;;;;;;;20.23;13.63;;;3.70;97.10;;;;;;5033620;28;20585;-62
2022/03/25 05:39:23;;;;;;;18.83;13.10;;;3.80;97.10;;;;;;5033936;28;20300;-62
2022/03/25 05:41:49;;;;;;;18.80;13.50;;;3.80;97.00;;;;;;5034052;28;20206;-62
2022/03/25 05:44:17;;;;;;;18.20;13.30;;;3.80;97.00;;;;;;5034247;28;20202;-62
2022/03/25 05:46:44;;;;;;;21.37;14.27;;;3.80;97.00;;;;;;5033463;28;20272;-63
2022/03/25 05:49:12;;;;;;;18.40;13.57;;;3.90;97.10;;;;;;5033624;28;20682;-63
2022/03/25 05:51:39;;;;;;;18.07;13.10;;;4.00;96.90;;;;;;5033931;28;20301;-62
2022/03/25 05:54:05;;;;;;;18.50;13.50;;;4.10;96.70;;;;;;5033376;28;20234;-63
2022/03/25 05:56:32;;;;;;;18.23;13.67;;;4.20;96.60;;;;;;5033318;28;20624;-62
2022/03/25 05:58:59;;;;;;;24.43;14.60;;;4.30;96.90;;;;;;5033623;28;20662;-63
2022/03/25 06:01:25;;;;;;;19.77;13.80;;;4.40;96.50;;;;;;5033296;28;20229;-63
2022/03/25 06:03:52;;;;;;;19.13;13.57;;;4.50;96.40;;;;;;5033222;28;20275;-63
2022/03/25 06:06:21;;;;;;;19.43;14.50;;;4.60;96.20;;;;;;5033127;28;20313;-63
2022/03/25 06:08:48;;;;;;;21.57;14.33;;;4.70;96.30;;;;;;5033450;28;20232;-63
2022/03/25 06:11:14;;;;;;;20.33;13.67;;;4.90;96.10;;;;;;5033292;28;20417;-62
2022/03/25 06:13:41;;;;;;;19.40;13.80;;;5.00;95.80;;;;;;5032999;28;20202;-63
2022/03/25 06:16:08;;;;;;;20.33;13.70;;;5.30;95.60;;;;;;5033075;28;20257;-62
2022/03/25 06:18:34;;;;;;;20.80;15.17;;;5.60;95.50;;;;;;5033375;28;20210;-62
2022/03/25 06:21:01;;;;;;;19.70;13.90;;;6.20;94.80;;;;;;5033048;28;20210;-62
2022/03/25 06:23:29;;;;;;;19.00;13.80;;;6.80;94.30;;;;;;5033205;28;20206;-61
2022/03/25 06:25:56;;;;;;;21.13;13.60;;;7.70;92.90;;;;;;5032709;28;20733;-64
2022/03/25 06:28:23;;;;;;;21.07;13.63;;;8.80;91.50;;;;;;5032899;28;20610;-63
2022/03/25 06:30:50;;;;;;;18.17;12.90;;;9.80;89.30;;;;;;5032851;28;20304;-64
2022/03/25 06:33:17;;;;;;;18.70;13.30;;;10.70;85.50;;;;;;5033059;28;20213;-63
2022/03/25 06:35:44;;;;;;;19.80;13.00;;;11.60;83.80;;;;;;5032367;28;20226;-63
2022/03/25 06:38:11;;;;;;;18.63;13.30;;;12.30;80.40;;;;;;5032609;28;20206;-63
2022/03/25 06:40:39;;;;;;;17.27;12.80;;;13.10;78.30;;;;;;5032555;28;20701;-62
2022/03/25 06:43:06;;;;;;;17.00;13.50;;;13.80;74.60;;;;;;5032574;28;20206;-63
2022/03/25 06:45:34;;;;;;;16.60;12.90;;;14.40;72.70;;;;;;5032058;28;20237;-62
2022/03/25 06:48:00;;;;;;;18.50;12.67;;;15.10;70.40;;;;;;5032731;28;20256;-63
2022/03/25 06:50:27;;;;;;;15.87;13.40;;;15.70;69.40;;;;;;5033359;28;20203;-62
2022/03/25 06:52:57;;;;;;;17.33;13.13;;;16.40;67.50;;;;;;5032598;28;20213;-63
2022/03/25 06:55:24;;;;;;;19.00;12.97;;;16.90;64.30;;;;;;5032103;28;20636;-62
2022/03/25 06:57:53;;;;;;;14.43;12.77;;;17.50;61.50;;;;;;5032788;28;20271;-62
2022/03/25 07:00:21;;;;;;;21.83;13.18;;;17.60;61.10;;;;;;5032445;28;20216;-62
2022/03/25 07:02:49;;;;;;;17.55;13.40;;;18.00;60.10;;;;;;5032344;28;20206;-62
2022/03/25 07:05:16;;;;;;;15.40;13.05;;;18.60;59.40;;;;;;5032099;28;20706;-61
2022/03/25 07:07:43;;;;;;;18.83;12.90;;;18.70;58.70;;;;;;5032150;28;20297;-62
2022/03/25 07:10:13;;;;;;;16.67;13.00;;;18.90;58.40;;;;;;5032156;28;20209;-63
2022/03/25 07:12:41;;;;;;;21.85;13.68;;;19.30;56.60;;;;;;5032185;28;20202;-62
2022/03/25 07:15:11;;;;;;;17.73;13.43;;;19.60;56.70;;;;;;5031904;28;20286;-64
2022/03/25 07:17:38;;;;;;;17.58;13.57;;;19.90;56.20;;;;;;5032352;28;20217;-62
2022/03/25 07:20:06;;;;;;;17.48;14.38;;;20.40;55.30;;;;;;5032099;28;20346;-63
2022/03/25 07:22:34;;;;;;;17.05;13.23;;;20.90;53.70;;;;;;5032129;28;20260;-62
2022/03/25 07:25:01;;;;;;;18.17;14.32;;;21.10;53.60;;;;;;5031673;28;20634;-62
2022/03/25 07:27:28;;;;;;;17.17;13.48;;;21.50;52.80;;;;;;5032255;28;20210;-65
2022/03/25 07:29:54;;;;;;;15.38;13.20;;;21.90;52.00;;;;;;5032290;28;20210;-64
2022/03/25 07:32:22;;;;;;;15.93;13.75;;;22.10;51.20;;;;;;5033228;28;20206;-61
2022/03/25 07:34:49;;;;;;;16.85;13.73;;;21.00;52.50;;;;;;5033163;28;20230;-62
2022/03/25 07:37:16;;;;;;;19.50;13.75;;;20.40;53.60;;;;;;5033890;28;20206;-62
2022/03/25 07:39:44;;;;;;;17.92;14.32;;;19.90;54.10;;;;;;5032435;28;20547;-62
2022/03/25 07:42:11;;;;;;;17.23;14.30;;;19.80;54.80;;;;;;5032214;28;20245;-62
2022/03/25 07:47:03;;;;;;;19.33;14.70;;;20.70;52.40;;;;;;5053148;22;20241;-61
2022/03/25 07:49:34;;;;;;;19.95;16.45;;;21.40;51.10;;;;;;5012256;28;20630;-61
2022/03/25 07:52:00;;;;;;;16.55;14.65;;;22.10;50.40;;;;;;5012672;28;20571;-61
2022/03/25 07:54:27;;;;;;;24.33;19.92;;;22.70;50.00;;;;;;5014574;28;20257;-61
2022/03/25 07:56:55;;;;;;;23.02;15.35;;;23.10;48.90;;;;;;5013773;28;20226;-60
2022/03/25 07:59:22;;;;;;;24.00;15.60;;;23.10;48.80;;;;;;5013339;28;20211;-63
2022/03/25 08:01:49;;;;;;;21.67;15.45;;;22.90;48.80;;;;;;5012792;28;20207;-62
2022/03/25 08:04:16;;;;;;;19.17;16.10;;;22.60;48.70;;;;;;5013228;28;20237;-62
2022/03/25 08:06:44;;;;;;;23.48;15.93;;;21.90;49.10;;;;;;5012768;28;20230;-62
2022/03/25 08:09:12;;;;;;;21.92;16.40;;;21.00;50.10;;;;;;5013145;28;20207;-62
2022/03/25 08:11:39;;;;;;;21.83;15.63;;;20.00;51.30;;;;;;5012623;28;20211;-62
2022/03/25 08:14:06;;;;;;;21.60;16.67;;;19.00;52.50;;;;;;5012362;28;20313;-62
2022/03/25 08:16:33;;;;;;;21.67;17.05;;;18.10;53.80;;;;;;5012852;28;20610;-62
2022/03/25 08:18:59;;;;;;;21.20;16.63;;;17.20;55.40;;;;;;5012570;28;20261;-62
2022/03/25 08:21:26;;;;;;;24.98;16.92;;;16.50;56.30;;;;;;5012644;28;20207;-61
2022/03/25 08:29:23;;;;;;;24.07;15.70;;;15.30;59.00;;;;;;5012478;28;20206;-62
2022/03/25 08:31:49;;;;;;;22.47;17.60;;;14.90;59.70;;;;;;5012564;28;20317;-61
2022/03/25 08:34:16;;;;;;;24.23;18.17;;;14.80;60.00;;;;;;5012197;28;20211;-62
2022/03/25 08:36:43;;;;;;;23.53;16.87;;;14.60;60.30;;;;;;5012346;28;20711;-62
2022/03/25 08:39:12;;;;;;;23.60;17.07;;;14.60;61.70;;;;;;5012645;28;20686;-62
2022/03/25 08:41:39;;;;;;;26.70;17.87;;;14.60;60.60;;;;;;5012258;28;20655;-61
2022/03/25 08:44:07;;;;;;;28.73;19.13;;;14.30;61.70;;;;;;5011737;28;20211;-61
2022/03/25 08:46:35;;;;;;;26.87;17.87;;;14.20;61.60;;;;;;5011933;28;20235;-62
2022/03/25 08:49:02;;;;;;;26.67;17.17;;;13.80;62.70;;;;;;5012110;28;20215;-61
2022/03/25 08:51:29;;;;;;;28.07;19.27;;;13.50;64.00;;;;;;5012080;28;20212;-61
2022/03/25 08:53:56;;;;;;;30.97;19.17;;;13.30;65.00;;;;;;5011674;28;20643;-61
2022/03/25 08:56:25;;;;;;;26.23;18.37;;;13.20;65.00;;;;;;5011801;28;20699;-62
2022/03/25 08:58:54;;;;;;;27.73;19.40;;;13.40;64.60;;;;;;5012616;28;20203;-62
2022/03/25 09:01:20;;;;;;;28.00;19.07;;;13.70;64.20;;;;;;5012203;28;20207;-61
2022/03/25 09:03:47;;;;;;;28.30;19.70;;;13.90;65.20;;;;;;5015340;28;20218;-61
2022/03/25 09:06:14;;;;;;;31.13;20.83;;;13.90;65.20;;;;;;5016143;28;20223;-62
2022/03/25 09:08:40;;;;;;;27.00;20.43;;;14.00;65.20;;;;;;5016242;28;20207;-60
2022/03/25 09:11:09;;;;;;;32.17;20.80;;;14.20;65.60;;;;;;5016227;28;20207;-60
2022/03/25 09:13:37;;;;;;;30.53;20.63;;;14.50;65.00;;;;;;5015503;28;20207;-60
2022/03/25 09:16:04;;;;;;;34.07;20.80;;;14.70;63.90;;;;;;5015185;28;20234;-60
2022/03/25 09:18:31;;;;;;;32.57;20.27;;;14.70;63.70;;;;;;5015591;28;20273;-57
2022/03/25 09:20:58;;;;;;;28.83;21.77;;;14.90;63.30;;;;;;5013714;28;20478;-58
2022/03/25 09:23:24;;;;;;;29.70;21.43;;;15.20;63.50;;;;;;5034107;28;20264;-58
2022/03/25 09:25:51;;;;;;;27.60;21.60;;;15.30;62.40;;;;;;5034441;28;20292;-57
2022/03/25 09:28:18;;;;;;;28.40;20.70;;;15.10;63.20;;;;;;5034986;28;20210;-63
2022/03/25 09:30:46;;;;;;;29.33;21.03;;;15.00;64.00;;;;;;5034915;28;20256;-59
2022/03/25 09:33:12;;;;;;;25.50;18.70;;;14.70;64.10;;;;;;5034713;28;20260;-59
2022/03/25 09:35:41;;;;;;;30.00;20.43;;;14.60;63.90;;;;;;5034256;28;20230;-62
2022/03/25 09:38:08;;;;;;;29.73;20.43;;;14.80;63.40;;;;;;5034885;28;20210;-60
2022/03/25 09:40:35;;;;;;;27.27;20.63;;;15.00;63.00;;;;;;5035168;28;20202;-60
2022/03/25 09:43:02;;;;;;;27.43;20.70;;;14.90;64.60;;;;;;5034592;28;20607;-60
2022/03/25 09:45:30;;;;;;;29.37;19.23;;;15.10;64.00;;;;;;5034967;28;20254;-60
2022/03/25 09:47:58;;;;;;;29.57;21.00;;;15.40;63.00;;;;;;5034883;28;20206;-60
2022/03/25 09:50:27;;;;;;;31.57;20.63;;;15.50;62.90;;;;;;5035082;28;20245;-57
2022/03/25 09:52:55;;;;;;;30.20;21.07;;;15.60;62.50;;;;;;5033871;28;20666;-57
2022/03/25 09:55:22;;;;;;;31.33;20.60;;;15.80;62.90;;;;;;5033919;28;20324;-59
2022/03/25 09:57:48;;;;;;;28.97;19.90;;;16.10;63.10;;;;;;5034909;28;20218;-61
2022/03/25 10:00:17;;;;;;;24.33;19.67;;;16.40;62.30;;;;;;5034221;28;20268;-58
2022/03/25 10:02:45;;;;;;;27.97;19.73;;;16.60;62.20;;;;;;5033887;28;20620;-58
2022/03/25 10:05:18;;;;;;;27.35;19.13;;;16.90;62.10;;;;;;5033896;28;20262;-58
2022/03/25 10:07:47;;;;;;;26.20;19.43;;;17.30;62.10;;;;;;5033762;28;20210;-58
2022/03/25 10:10:15;;;;;;;27.42;20.05;;;17.70;60.80;;;;;;5034269;28;20252;-58
2022/03/25 10:12:44;;;;;;;28.05;19.90;;;18.00;59.90;;;;;;5033537;28;20217;-58
2022/03/25 10:15:17;;;;;;;29.30;20.63;;;18.40;59.20;;;;;;5033529;28;20230;-58
2022/03/25 10:17:55;;;;;;;30.80;20.75;;;18.50;58.70;;;;;;5034285;28;20309;-57
2022/03/25 10:20:25;;;;;;;27.85;19.85;;;18.70;58.70;;;;;;5033575;28;20250;-57
2022/03/25 10:23:04;;;;;;;26.70;20.67;;;18.90;58.30;;;;;;5033774;28;20207;-58
2022/03/25 10:25:41;;;;;;;26.70;18.58;;;19.10;57.20;;;;;;5033266;28;20705;-58
2022/03/25 10:28:29;;;;;;;29.60;20.63;;;19.30;56.70;;;;;;5033473;28;20229;-58
2022/03/25 10:30:58;;;;;;;24.60;19.60;;;19.50;55.90;;;;;;5033466;28;20241;-58
2022/03/25 10:33:28;;;;;;;27.80;21.25;;;19.50;55.50;;;;;;5033366;28;20593;-61
2022/03/25 10:36:00;;;;;;;26.63;19.60;;;19.60;55.00;;;;;;5033170;28;20344;-61
2022/03/25 10:38:28;;;;;;;27.88;20.38;;;19.40;55.60;;;;;;5033554;28;20228;-55
2022/03/25 10:40:57;;;;;;;28.23;21.02;;;18.70;57.10;;;;;;5033298;28;20206;-54
2022/03/25 10:43:25;;;;;;;29.90;20.80;;;18.10;57.80;;;;;;5033115;28;20642;-55
2022/03/25 10:45:52;;;;;;;29.88;20.17;;;18.00;57.90;;;;;;5032034;28;20234;-55
2022/03/25 10:48:21;;;;;;;24.52;19.50;;;18.10;58.20;;;;;;5032851;28;20210;-54
2022/03/25 10:51:00;;;;;;;26.55;20.50;;;18.10;57.30;;;;;;5033789;28;20214;-63
2022/03/25 10:53:28;;;;;;;23.17;18.33;;;17.70;56.50;;;;;;5033540;28;20206;-62
2022/03/25 10:55:56;;;;;;;25.55;18.27;;;17.60;57.20;;;;;;5033095;28;20234;-63
2022/03/25 10:58:23;;;;;;;25.42;19.95;;;17.80;57.10;;;;;;5033341;28;20211;-63
2022/03/25 11:00:50;;;;;;;22.45;18.38;;;18.30;56.40;;;;;;5033567;28;20209;-61
2022/03/25 11:03:18;;;;;;;26.45;19.80;;;18.60;56.00;;;;;;5033297;28;20209;-60
2022/03/25 11:05:45;;;;;;;26.77;20.17;;;19.00;55.40;;;;;;5032444;28;20229;-59
2022/03/25 11:08:13;;;;;;;27.77;20.08;;;19.20;55.10;;;;;;5032800;28;20670;-59
2022/03/25 11:10:40;;;;;;;25.23;18.55;;;19.10;54.80;;;;;;5033574;28;20233;-61
2022/03/25 11:13:08;;;;;;;23.50;18.98;;;19.00;55.40;;;;;;5032881;28;20218;-61
2022/03/25 11:15:36;;;;;;;28.90;20.77;;;19.10;54.30;;;;;;5032225;28;20218;-59
2022/03/25 11:18:03;;;;;;;27.13;20.08;;;19.30;53.80;;;;;;5032592;28;20637;-60
2022/03/25 11:20:30;;;;;;;27.50;19.67;;;19.40;53.80;;;;;;5032181;28;20206;-60
2022/03/25 11:23:04;;;;;;;23.92;19.63;;;19.40;53.10;;;;;;5032624;28;20233;-59
2022/03/25 11:25:37;;;;;;;23.75;19.08;;;19.40;52.80;;;;;;5031722;28;20284;-59
2022/03/25 11:28:08;;;;;;;23.25;19.48;;;19.50;53.00;;;;;;5032810;28;20206;-59
2022/03/25 11:30:36;;;;;;;25.13;19.58;;;19.70;52.10;;;;;;5032643;28;20210;-59
2022/03/25 11:33:06;;;;;;;25.23;18.85;;;19.90;52.10;;;;;;5032712;28;20214;-58
2022/03/25 11:35:34;;;;;;;26.13;19.80;;;20.00;51.90;;;;;;5032465;28;20321;-60
2022/03/25 11:38:22;;;;;;;25.80;20.08;;;20.10;51.30;;;;;;5032790;28;20739;-60
2022/03/25 11:40:52;;;;;;;29.13;21.35;;;20.10;51.30;;;;;;5023532;28;20203;-67
2022/03/25 11:43:21;;;;;;;26.63;19.60;;;20.10;51.20;;;;;;5031559;28;20206;-60
2022/03/25 11:46:04;;;;;;;26.42;20.52;;;20.20;51.40;;;;;;5030432;28;20234;-60
2022/03/25 11:48:41;;;;;;;25.58;20.27;;;20.10;50.90;;;;;;5032592;28;20736;-64
2022/03/25 11:51:36;;;;;;;26.08;19.92;;;20.00;50.40;;;;;;5031040;28;20252;-62
2022/03/25 11:54:22;;;;;;;25.00;20.17;;;20.10;50.90;;;;;;5033364;28;20206;-60
2022/03/25 11:56:51;;;;;;;25.75;20.13;;;20.20;50.20;;;;;;5032727;28;20245;-60
2022/03/25 11:59:18;;;;;;;29.25;20.42;;;20.30;49.70;;;;;;5032450;28;20213;-59
2022/03/25 12:01:45;;;;;;;24.50;20.20;;;20.40;49.20;;;;;;5032994;28;20210;-57
2022/03/25 12:04:15;;;;;;;26.15;20.73;;;20.50;48.80;;;;;;5032194;28;20220;-58
2022/03/25 12:07:02;;;;;;;23.98;19.75;;;20.50;49.00;;;;;;5032189;28;20226;-58
2022/03/25 12:09:36;;;;;;;24.30;18.90;;;20.50;48.70;;;;;;5031776;28;20201;-57
2022/03/25 12:12:05;;;;;;;24.67;19.67;;;20.50;47.60;;;;;;5031884;28;20547;-58
2022/03/25 12:14:33;;;;;;;25.02;18.52;;;20.60;47.80;;;;;;5031238;28;20578;-57
2022/03/25 12:17:05;;;;;;;23.33;18.17;;;20.60;47.90;;;;;;5031799;28;20233;-58
2022/03/25 12:19:51;;;;;;;22.70;18.55;;;20.70;47.30;;;;;;5032340;28;20559;-60
2022/03/25 12:22:29;;;;;;;24.10;19.58;;;20.70;46.60;;;;;;5032101;28;20268;-61
2022/03/25 12:24:58;;;;;;;20.80;17.50;;;20.80;46.40;;;;;;5033223;28;20245;-64
2022/03/25 12:27:26;;;;;;;23.80;18.42;;;20.80;46.40;;;;;;5032416;28;20662;-58
2022/03/25 12:29:55;;;;;;;19.95;16.35;;;20.70;45.40;;;;;;5033407;28;20213;-59
2022/03/25 12:32:23;;;;;;;20.33;16.38;;;20.70;45.20;;;;;;5033225;28;20584;-61
2022/03/25 12:34:55;;;;;;;27.13;18.35;;;20.70;45.20;;;;;;5032375;28;20209;-61
2022/03/25 12:37:28;;;;;;;20.20;16.30;;;20.60;46.80;;;;;;5035259;28;20226;-59
2022/03/25 12:39:55;;;;;;;18.63;15.85;;;20.60;46.00;;;;;;5037558;28;20214;-59
2022/03/25 12:42:22;;;;;;;18.75;16.42;;;20.70;44.50;;;;;;5036690;28;20210;-59
2022/03/25 12:44:55;;;;;;;22.52;16.73;;;20.80;44.90;;;;;;5035771;28;20705;-58